Banff, Canada
Current Conditions -  °F | °C
As of 12:38 AM on Saturday 29 Nov 2014 (Local Time) from CYBW Reporting Station
Light Snow Light Snow  
Wind Chill: -30°   Ceiling: 7500
Heat Index: -9°   Visibility: 9mi
Dew Point: -17°   Wind: 13mph
Humidity: 71%   Direction: 350°N
Pressure: 29.65"   Gusts: NA
Location:  51.18°N, 115.57°W
Report Text: CYBW 290738Z AUTO 35011KT 9SM -SNSN OVC075 M23/M27 A2965 RMK SLP154
Loading
Personal Weather Stations






























Interactive Weather Map New forecast layout! Learn more

10-Day Weather Forecast

Advertisements
Track Severe Weather on mobile